createdAt,value
2023-02-08T00:01:56.800Z,99885.00
2023-02-08T00:05:57.771Z,99871.00
2023-02-08T00:09:59.110Z,99874.00
2023-02-08T00:14:00.246Z,99876.00
2023-02-08T00:18:01.502Z,99864.00
2023-02-08T00:22:02.511Z,99854.00
2023-02-08T00:26:04.518Z,99864.00
2023-02-08T00:30:06.575Z,99867.00
2023-02-08T00:34:07.546Z,99864.00
2023-02-08T00:38:08.793Z,99856.00
2023-02-08T00:42:10.214Z,99856.00
2023-02-08T00:46:11.209Z,99846.00
2023-02-08T00:50:12.321Z,99853.00
2023-02-08T00:54:17.283Z,99848.00
2023-02-08T00:58:18.434Z,99847.00
2023-02-08T01:02:19.674Z,99846.00
2023-02-08T01:06:20.796Z,99849.00
2023-02-08T01:10:21.881Z,99853.00
2023-02-08T01:14:23.067Z,99848.00
2023-02-08T01:18:24.207Z,99856.00
2023-02-08T01:22:25.389Z,99843.00
2023-02-08T01:26:26.705Z,99834.00
2023-02-08T01:30:27.908Z,99847.00
2023-02-08T01:34:29.118Z,99846.00
2023-02-08T01:38:31.007Z,99834.00
2023-02-08T01:42:32.082Z,99839.00
2023-02-08T01:46:35.574Z,99837.00
2023-02-08T01:50:43.180Z,99839.00
2023-02-08T01:54:51.018Z,99826.00
2023-02-08T01:58:55.993Z,99838.00
2023-02-08T02:02:59.289Z,99832.00
2023-02-08T02:07:02.960Z,99838.00
2023-02-08T02:11:04.360Z,99837.00
2023-02-08T02:15:06.070Z,99846.00
2023-02-08T02:19:11.034Z,99832.00
2023-02-08T02:23:31.189Z,99838.00
2023-02-08T02:27:35.972Z,99836.00
2023-02-08T02:31:59.477Z,99841.00
2023-02-08T02:36:28.643Z,99843.00
2023-02-08T02:40:49.895Z,99827.00
2023-02-08T02:45:03.735Z,99829.00
2023-02-08T02:49:17.261Z,99828.00
2023-02-08T02:53:41.651Z,99826.00
2023-02-08T02:57:45.677Z,99827.00
2023-02-08T03:01:47.415Z,99827.00
2023-02-08T03:05:50.876Z,99824.00
2023-02-08T03:10:20.129Z,99817.00
2023-02-08T03:14:48.446Z,99825.00
2023-02-08T03:19:11.440Z,99819.00
2023-02-08T03:23:32.626Z,99824.00
2023-02-08T03:27:52.432Z,99817.00
2023-02-08T03:31:57.514Z,99818.00
2023-02-08T03:36:08.326Z,99819.00
2023-02-08T03:40:13.127Z,99818.00
2023-02-08T03:44:18.091Z,99826.00
2023-02-08T03:48:21.229Z,99825.00
2023-02-08T03:52:24.206Z,99827.00
2023-02-08T03:56:44.146Z,99831.00
2023-02-08T04:00:49.133Z,99826.00
2023-02-08T04:04:52.229Z,99840.00
2023-02-08T04:08:53.230Z,99820.00
2023-02-08T04:12:54.207Z,99822.00
2023-02-08T04:16:55.543Z,99825.00
2023-02-08T04:20:59.902Z,99827.00
2023-02-08T04:25:00.866Z,99832.00
2023-02-08T04:29:01.969Z,99819.00
2023-02-08T04:33:03.319Z,99828.00
2023-02-08T04:37:05.118Z,99822.00
2023-02-08T04:41:06.081Z,99823.00
2023-02-08T04:45:08.055Z,99812.00
2023-02-08T04:49:09.104Z,99803.00
2023-02-08T04:53:10.918Z,99803.00
2023-02-08T04:57:13.530Z,99800.00
2023-02-08T05:01:15.812Z,99810.00
2023-02-08T05:05:16.965Z,99806.00
2023-02-08T05:09:17.984Z,99803.00
2023-02-08T05:13:18.982Z,99796.00
2023-02-08T05:17:20.182Z,99803.00
2023-02-08T05:21:23.116Z,99808.00
2023-02-08T05:25:24.139Z,99797.00
2023-02-08T05:29:25.559Z,99800.00
2023-02-08T05:33:26.683Z,99803.00
2023-02-08T05:37:27.639Z,99809.00
2023-02-08T05:41:28.779Z,99804.00
2023-02-08T05:45:30.088Z,99817.00
2023-02-08T05:49:31.132Z,99810.00
2023-02-08T05:53:32.183Z,99819.00
2023-02-08T05:57:35.643Z,99823.00
2023-02-08T06:01:37.121Z,99825.00
2023-02-08T06:05:39.446Z,99824.00
2023-02-08T06:09:40.660Z,99822.00
2023-02-08T06:13:41.745Z,99832.00
2023-02-08T06:17:42.858Z,99835.00
2023-02-08T06:21:43.976Z,99829.00
2023-02-08T06:25:45.088Z,99833.00
2023-02-08T06:29:46.217Z,99842.00
2023-02-08T06:33:47.216Z,99840.00
2023-02-08T06:37:48.436Z,99839.00
2023-02-08T06:41:49.394Z,99837.00
2023-02-08T06:45:50.546Z,99832.00
2023-02-08T06:49:52.594Z,99845.00
2023-02-08T06:53:53.705Z,99832.00
2023-02-08T06:57:55.586Z,99836.00
2023-02-08T07:01:59.564Z,99826.00
2023-02-08T07:06:05.437Z,99830.00
2023-02-08T07:10:03.980Z,99828.00
2023-02-08T07:14:04.959Z,99834.00
2023-02-08T07:18:05.913Z,99845.00
2023-02-08T07:22:07.696Z,99853.00
2023-02-08T07:26:11.475Z,99837.00
2023-02-08T07:30:13.167Z,99835.00
2023-02-08T07:34:16.101Z,99831.00
2023-02-08T07:38:20.554Z,99836.00
2023-02-08T07:42:21.097Z,99825.00
2023-02-08T07:46:22.564Z,99819.00
2023-02-08T07:50:23.596Z,99820.00
2023-02-08T07:54:24.917Z,99836.00
2023-02-08T07:58:26.680Z,99828.00
2023-02-08T08:02:27.651Z,99834.00
2023-02-08T08:06:28.978Z,99828.00
2023-02-08T08:10:30.636Z,99838.00
2023-02-08T08:14:31.956Z,99827.00
2023-02-08T08:18:33.360Z,99835.00
2023-02-08T08:22:34.389Z,99836.00
2023-02-08T08:26:35.350Z,99831.00
2023-02-08T08:30:36.496Z,99832.00
2023-02-08T08:34:37.545Z,99823.00
2023-02-08T08:38:39.535Z,99826.00
2023-02-08T08:42:40.585Z,99826.00
2023-02-08T08:46:41.759Z,99826.00
2023-02-08T08:50:43.103Z,99825.00
2023-02-08T08:54:44.351Z,99826.00
2023-02-08T08:58:45.472Z,99824.00
2023-02-08T09:02:46.404Z,99818.00
2023-02-08T09:06:49.594Z,99825.00
2023-02-08T09:10:50.550Z,99820.00
2023-02-08T09:14:51.642Z,99821.00
2023-02-08T09:18:52.615Z,99808.00
2023-02-08T09:22:53.836Z,99817.00
2023-02-08T09:26:55.275Z,99806.00
2023-02-08T09:30:57.111Z,99807.00
2023-02-08T09:34:58.021Z,99807.00
2023-02-08T09:39:09.473Z,99809.00
2023-02-08T09:43:14.200Z,99808.00
2023-02-08T09:47:21.884Z,99809.00
2023-02-08T09:51:32.195Z,99812.00
2023-02-08T09:55:37.208Z,99820.00
2023-02-08T09:59:40.101Z,99823.00
2023-02-08T10:03:44.997Z,99829.00
2023-02-08T10:07:46.538Z,99822.00
2023-02-08T10:11:58.398Z,99824.00
2023-02-08T10:16:08.911Z,99821.00
2023-02-08T10:20:31.195Z,99824.00
2023-02-08T10:24:44.917Z,99821.00
2023-02-08T10:29:06.494Z,99822.00
2023-02-08T10:33:20.136Z,99820.00
2023-02-08T10:37:35.844Z,99799.00
2023-02-08T10:41:39.274Z,99796.00
2023-02-08T10:45:46.961Z,99802.00
2023-02-08T10:50:08.349Z,99791.00
2023-02-08T10:54:12.327Z,99789.00
2023-02-08T10:58:23.298Z,99793.00
2023-02-08T11:02:28.290Z,99782.00
2023-02-08T11:06:29.357Z,99783.00
2023-02-08T11:10:30.883Z,99777.00
2023-02-08T11:14:46.067Z,99769.00
2023-02-08T11:18:48.035Z,99771.00
2023-02-08T11:22:49.108Z,99760.00
2023-02-08T11:26:50.815Z,99764.00
2023-02-08T11:30:56.569Z,99757.00
2023-02-08T11:35:03.465Z,99750.00
2023-02-08T11:39:17.164Z,99752.00
2023-02-08T11:43:24.390Z,99749.00
2023-02-08T11:47:28.859Z,99755.00
2023-02-08T11:51:34.121Z,99748.00
2023-02-08T11:55:35.329Z,99741.00
2023-02-08T11:59:36.466Z,99742.00
2023-02-08T12:03:39.938Z,99749.00
2023-02-08T12:08:01.223Z,99741.00
2023-02-08T12:12:12.982Z,99736.00
2023-02-08T12:16:20.913Z,99740.00
2023-02-08T12:20:25.655Z,99732.00
2023-02-08T12:24:36.532Z,99733.00
2023-02-08T12:29:02.328Z,99724.00
2023-02-08T12:33:07.131Z,99726.00
2023-02-08T12:37:36.337Z,99715.00
2023-02-08T12:42:01.048Z,99717.00
2023-02-08T12:46:08.787Z,99698.00
2023-02-08T12:50:30.952Z,99693.00
2023-02-08T12:54:35.732Z,99688.00
2023-02-08T12:58:46.374Z,99703.00
2023-02-08T13:03:13.723Z,99701.00
2023-02-08T13:07:21.570Z,99690.00
2023-02-08T13:11:41.317Z,99686.00
2023-02-08T13:15:55.146Z,99679.00
2023-02-08T13:20:18.309Z,99668.00
2023-02-08T13:24:23.152Z,99659.00
2023-02-08T13:28:25.740Z,99652.00
2023-02-08T13:36:40.613Z,99647.00
2023-02-08T13:40:42.687Z,99644.00
2023-02-08T13:44:47.778Z,99636.00
2023-02-08T13:48:52.339Z,99629.00
2023-02-08T13:52:53.860Z,99631.00
2023-02-08T13:56:55.322Z,99631.00
2023-02-08T14:01:00.950Z,99637.00
2023-02-08T14:05:40.814Z,99632.00
2023-02-08T14:10:14.551Z,99640.00
2023-02-08T14:14:28.313Z,99622.00
2023-02-08T14:18:30.128Z,99625.00
2023-02-08T14:22:35.016Z,99630.00
2023-02-08T14:26:36.915Z,99619.00
2023-02-08T14:30:39.313Z,99622.00
2023-02-08T14:34:40.931Z,99609.00
2023-02-08T14:38:48.958Z,99607.00
2023-02-08T14:43:16.781Z,99616.00
2023-02-08T14:47:27.654Z,99587.00
2023-02-08T14:51:32.666Z,99592.00
2023-02-08T14:55:43.559Z,99594.00
2023-02-08T14:59:45.639Z,99591.00
2023-02-08T15:03:50.568Z,99591.00
2023-02-08T15:07:54.692Z,99586.00
2023-02-08T15:12:06.407Z,99584.00
2023-02-08T15:16:10.766Z,99573.00
2023-02-08T15:20:21.414Z,99567.00
2023-02-08T15:24:26.433Z,99568.00
2023-02-08T15:28:30.086Z,99566.00
2023-02-08T15:32:31.519Z,99567.00
2023-02-08T15:36:36.284Z,99569.00
2023-02-08T15:40:37.493Z,99565.00
2023-02-08T15:44:41.957Z,99552.00
2023-02-08T15:48:45.449Z,99548.00
2023-02-08T15:52:48.058Z,99551.00
2023-02-08T15:57:04.802Z,99540.00
2023-02-08T16:01:08.919Z,99541.00
2023-02-08T16:05:19.985Z,99537.00
2023-02-08T16:09:27.767Z,99531.00
2023-02-08T16:13:35.139Z,99565.00
2023-02-08T16:17:45.174Z,99531.00
2023-02-08T16:21:46.320Z,99529.00
2023-02-08T16:25:49.409Z,99532.00
2023-02-08T16:29:51.096Z,99519.00
2023-02-08T16:34:01.052Z,99518.00
2023-02-08T16:38:05.525Z,99527.00
2023-02-08T16:42:22.605Z,99525.00
2023-02-08T16:46:25.295Z,99520.00
2023-02-08T16:50:27.607Z,99522.00
2023-02-08T16:54:29.082Z,99527.00
2023-02-08T16:58:30.135Z,99527.00
2023-02-08T17:02:31.292Z,99533.00
2023-02-08T17:06:35.007Z,99517.00
2023-02-08T17:10:37.284Z,99520.00
2023-02-08T17:14:38.704Z,99525.00
2023-02-08T17:18:40.153Z,99521.00
2023-02-08T17:22:41.143Z,99527.00
2023-02-08T17:26:43.300Z,99522.00
2023-02-08T17:30:45.819Z,99528.00
2023-02-08T17:34:46.799Z,99510.00
2023-02-08T17:38:48.167Z,99532.00
2023-02-08T17:42:51.695Z,99525.00
2023-02-08T17:46:52.827Z,99522.00
2023-02-08T17:50:53.922Z,99526.00
2023-02-08T17:54:54.901Z,99514.00
2023-02-08T17:58:56.031Z,99524.00
2023-02-08T18:02:59.049Z,99508.00
2023-02-08T18:06:59.767Z,99506.00
2023-02-08T18:11:05.571Z,99509.00
2023-02-08T18:15:09.571Z,99506.00
2023-02-08T18:19:10.861Z,99504.00
2023-02-08T18:23:12.618Z,99501.00
2023-02-08T18:27:14.184Z,99509.00
2023-02-08T18:31:19.157Z,99500.00
2023-02-08T18:35:20.461Z,99498.00
2023-02-08T18:39:22.605Z,99489.00
2023-02-08T18:43:24.928Z,99502.00
2023-02-08T18:47:26.006Z,99493.00
2023-02-08T18:51:27.647Z,99501.00
2023-02-08T18:55:28.617Z,99496.00
2023-02-08T18:59:30.057Z,99499.00
2023-02-08T19:03:31.554Z,99503.00
2023-02-08T19:07:34.337Z,99507.00
2023-02-08T19:11:37.469Z,99500.00
2023-02-08T19:15:39.983Z,99503.00
2023-02-08T19:19:41.457Z,99509.00
2023-02-08T19:23:44.717Z,99506.00
2023-02-08T19:27:50.936Z,99499.00
2023-02-08T19:31:52.072Z,99499.00
2023-02-08T19:35:53.118Z,99494.00
2023-02-08T19:39:54.069Z,99492.00
2023-02-08T19:43:55.238Z,99495.00
2023-02-08T19:47:56.692Z,99494.00
2023-02-08T19:51:57.684Z,99494.00
2023-02-08T19:56:04.319Z,99486.00
2023-02-08T20:00:11.290Z,99481.00
2023-02-08T20:04:08.950Z,99474.00
2023-02-08T20:08:10.795Z,99473.00
2023-02-08T20:12:11.891Z,99462.00
2023-02-08T20:16:13.256Z,99456.00
2023-02-08T20:20:14.551Z,99466.00
2023-02-08T20:24:16.015Z,99464.00
2023-02-08T20:28:17.272Z,99462.00
2023-02-08T20:32:18.877Z,99465.00
2023-02-08T20:36:22.706Z,99482.00
2023-02-08T20:40:23.789Z,99463.00
2023-02-08T20:44:24.781Z,99461.00
2023-02-08T20:48:25.869Z,99458.00
2023-02-08T20:52:27.780Z,99460.00
2023-02-08T20:56:34.247Z,99461.00
2023-02-08T21:00:42.210Z,99463.00
2023-02-08T21:04:38.284Z,99452.00
2023-02-08T21:08:39.694Z,99452.00
2023-02-08T21:12:40.939Z,99452.00
2023-02-08T21:16:42.003Z,99450.00
2023-02-08T21:20:43.638Z,99453.00
2023-02-08T21:24:44.906Z,99449.00
2023-02-08T21:28:46.548Z,99474.00
2023-02-08T21:32:48.208Z,99436.00
2023-02-08T21:36:49.275Z,99430.00
2023-02-08T21:40:50.278Z,99417.00
2023-02-08T21:44:51.438Z,99421.00
2023-02-08T21:49:11.073Z,99407.00
2023-02-08T21:53:33.045Z,99402.00
2023-02-08T21:57:37.252Z,99393.00
2023-02-08T22:01:38.410Z,99397.00
2023-02-08T22:05:57.984Z,99386.00
2023-02-08T22:09:59.169Z,99391.00
2023-02-08T22:14:00.580Z,99393.00
2023-02-08T22:18:02.789Z,99400.00
2023-02-08T22:22:04.086Z,99399.00
2023-02-08T22:26:09.057Z,99400.00
2023-02-08T22:30:13.456Z,99406.00
2023-02-08T22:34:14.496Z,99389.00
2023-02-08T22:38:15.617Z,99386.00
2023-02-08T22:42:16.744Z,99383.00
2023-02-08T22:46:17.885Z,99367.00
2023-02-08T22:50:19.292Z,99377.00
2023-02-08T22:54:20.296Z,99363.00
2023-02-08T22:58:21.841Z,99374.00
2023-02-08T23:02:23.934Z,99196.00
2023-02-08T23:06:24.964Z,99390.00
2023-02-08T23:10:26.086Z,99383.00
2023-02-08T23:14:27.158Z,99376.00
2023-02-08T23:18:28.288Z,99373.00
2023-02-08T23:22:29.363Z,99379.00
2023-02-08T23:26:30.390Z,99379.00
2023-02-08T23:30:31.469Z,99394.00
2023-02-08T23:34:34.146Z,99405.00
2023-02-08T23:38:35.529Z,99395.00
2023-02-08T23:42:36.661Z,99395.00
2023-02-08T23:46:38.417Z,99398.00
2023-02-08T23:50:39.429Z,99389.00
2023-02-08T23:54:41.097Z,99399.00
2023-02-08T23:58:44.141Z,99396.00
